createdAt,value
2023-05-08T00:02:13.083Z,5.60
2023-05-08T00:04:30.463Z,5.20
2023-05-08T00:06:47.788Z,5.03
2023-05-08T00:09:05.036Z,5.63
2023-05-08T00:11:21.991Z,5.30
2023-05-08T00:13:39.227Z,4.50
2023-05-08T00:15:56.540Z,4.40
2023-05-08T00:18:13.775Z,4.70
2023-05-08T00:20:31.979Z,4.40
2023-05-08T00:22:49.252Z,4.57
2023-05-08T00:25:06.558Z,4.47
2023-05-08T00:27:23.512Z,4.80
2023-05-08T00:29:40.861Z,5.45
2023-05-08T00:31:58.367Z,5.00
2023-05-08T00:34:15.666Z,4.68
2023-05-08T00:36:32.933Z,4.68
2023-05-08T00:38:50.168Z,4.70
2023-05-08T00:41:07.779Z,4.97
2023-05-08T00:43:25.946Z,5.50
2023-05-08T00:45:43.250Z,6.05
2023-05-08T00:48:01.613Z,5.85
2023-05-08T00:50:18.972Z,5.80
2023-05-08T00:52:36.257Z,5.32
2023-05-08T00:54:53.518Z,5.90
2023-05-08T00:57:11.797Z,6.15
2023-05-08T00:59:28.692Z,6.25
2023-05-08T01:01:46.024Z,6.05
2023-05-08T01:04:03.258Z,6.00
2023-05-08T01:06:20.856Z,5.63
2023-05-08T01:08:38.160Z,4.95
2023-05-08T01:10:55.474Z,5.30
2023-05-08T01:13:13.263Z,5.05
2023-05-08T01:15:30.716Z,5.45
2023-05-08T01:17:48.008Z,5.22
2023-05-08T01:20:05.394Z,4.65
2023-05-08T01:22:23.181Z,4.95
2023-05-08T01:24:40.504Z,5.10
2023-05-08T01:26:57.509Z,4.93
2023-05-08T01:29:15.587Z,5.00
2023-05-08T01:31:32.969Z,5.78
2023-05-08T01:33:50.745Z,5.13
2023-05-08T01:36:08.037Z,5.60
2023-05-08T01:38:25.301Z,5.75
2023-05-08T01:40:42.515Z,5.22
2023-05-08T01:42:59.825Z,6.07
2023-05-08T01:45:17.086Z,5.57
2023-05-08T01:47:34.867Z,5.22
2023-05-08T01:49:52.134Z,6.10
2023-05-08T01:52:10.688Z,5.30
2023-05-08T01:54:27.985Z,5.60
2023-05-08T01:56:45.262Z,5.57
2023-05-08T01:59:02.325Z,6.15
2023-05-08T02:01:20.111Z,5.88
2023-05-08T02:03:37.423Z,5.95
2023-05-08T02:05:54.837Z,6.18
2023-05-08T02:08:12.238Z,6.07
2023-05-08T02:10:29.097Z,5.93
2023-05-08T02:12:46.430Z,7.10
2023-05-08T02:15:03.772Z,6.93
2023-05-08T02:17:21.122Z,6.78
2023-05-08T02:19:38.418Z,6.60
2023-05-08T02:21:56.673Z,6.40
2023-05-08T02:24:13.593Z,6.35
2023-05-08T02:26:30.829Z,5.90
2023-05-08T02:28:47.890Z,7.32
2023-05-08T02:31:04.859Z,6.03
2023-05-08T02:33:22.243Z,5.93
2023-05-08T02:35:39.470Z,6.10
2023-05-08T02:37:56.756Z,6.72
2023-05-08T02:40:14.082Z,6.20
2023-05-08T02:42:31.637Z,6.93
2023-05-08T02:44:49.211Z,6.55
2023-05-08T02:47:07.228Z,6.32
2023-05-08T02:49:24.781Z,6.30
2023-05-08T02:51:43.149Z,7.13
2023-05-08T02:54:00.410Z,6.90
2023-05-08T02:56:17.300Z,7.00
2023-05-08T02:58:34.237Z,7.20
2023-05-08T03:00:51.563Z,7.32
2023-05-08T03:03:08.552Z,7.22
2023-05-08T03:05:26.197Z,6.93
2023-05-08T03:07:44.466Z,6.25
2023-05-08T03:10:01.448Z,6.15
2023-05-08T03:12:20.032Z,6.80
2023-05-08T03:14:37.349Z,6.30
2023-05-08T03:16:54.654Z,6.90
2023-05-08T03:19:11.989Z,7.25
2023-05-08T03:21:29.275Z,7.03
2023-05-08T03:23:47.544Z,5.97
2023-05-08T03:26:04.856Z,6.65
2023-05-08T03:28:21.866Z,7.18
2023-05-08T03:30:38.766Z,6.43
2023-05-08T03:32:56.387Z,6.22
2023-05-08T03:35:13.649Z,6.70
2023-05-08T03:37:31.592Z,7.25
2023-05-08T03:39:48.834Z,7.63
2023-05-08T03:42:06.088Z,7.15
2023-05-08T03:44:24.004Z,6.97
2023-05-08T03:46:41.806Z,7.38
2023-05-08T03:49:00.172Z,6.80
2023-05-08T03:51:17.121Z,6.90
2023-05-08T03:53:34.426Z,6.32
2023-05-08T03:55:51.726Z,7.00
2023-05-08T03:58:09.369Z,6.95
2023-05-08T04:00:26.465Z,6.93
2023-05-08T04:02:43.758Z,7.07
2023-05-08T04:05:01.083Z,6.72
2023-05-08T04:07:18.109Z,7.03
2023-05-08T04:09:36.358Z,7.20
2023-05-08T04:11:53.650Z,6.88
2023-05-08T04:14:10.918Z,7.60
2023-05-08T04:16:28.224Z,8.10
2023-05-08T04:18:45.494Z,7.93
2023-05-08T04:21:02.736Z,7.60
2023-05-08T04:23:20.066Z,7.53
2023-05-08T04:25:38.716Z,8.07
2023-05-08T04:27:56.399Z,6.90
2023-05-08T04:30:14.068Z,7.30
2023-05-08T04:32:31.197Z,6.65
2023-05-08T04:34:48.474Z,7.57
2023-05-08T04:37:06.108Z,7.20
2023-05-08T04:39:23.370Z,7.85
2023-05-08T04:41:40.482Z,7.75
2023-05-08T04:43:57.385Z,6.75
2023-05-08T04:46:15.811Z,7.30
2023-05-08T04:48:33.142Z,7.55
2023-05-08T04:50:50.528Z,8.50
2023-05-08T04:53:07.830Z,8.90
2023-05-08T04:55:25.570Z,11.63
2023-05-08T04:57:42.917Z,13.10
2023-05-08T05:00:00.224Z,14.57
2023-05-08T05:02:20.018Z,15.18
2023-05-08T05:04:37.011Z,14.75
2023-05-08T05:06:56.786Z,14.77
2023-05-08T05:09:13.779Z,16.42
2023-05-08T05:11:31.524Z,16.27
2023-05-08T05:13:48.717Z,17.20
2023-05-08T05:16:06.049Z,16.05
2023-05-08T05:18:24.399Z,17.02
2023-05-08T05:20:42.840Z,17.55
2023-05-08T05:23:01.000Z,17.95
2023-05-08T05:25:20.463Z,18.08
2023-05-08T05:27:37.881Z,18.60
2023-05-08T05:29:55.106Z,18.33
2023-05-08T05:32:13.400Z,18.75
2023-05-08T05:34:30.738Z,16.55
2023-05-08T05:36:48.037Z,19.30
2023-05-08T05:39:11.018Z,18.30
2023-05-08T05:41:28.016Z,19.55
2023-05-08T05:43:46.268Z,18.67
2023-05-08T05:46:04.175Z,18.38
2023-05-08T05:48:23.866Z,17.13
2023-05-08T05:50:41.153Z,17.40
2023-05-08T05:52:58.945Z,16.20
2023-05-08T05:55:16.311Z,16.70
2023-05-08T05:57:36.091Z,17.23
2023-05-08T05:59:54.833Z,16.80
2023-05-08T06:02:12.989Z,15.93
2023-05-08T06:04:30.202Z,17.27
2023-05-08T06:06:48.707Z,14.63
2023-05-08T06:09:07.080Z,15.57
2023-05-08T06:11:24.374Z,16.73
2023-05-08T06:13:41.778Z,16.10
2023-05-08T06:15:59.042Z,14.73
2023-05-08T06:18:17.258Z,16.20
2023-05-08T06:20:34.964Z,16.83
2023-05-08T06:22:52.349Z,16.42
2023-05-08T06:25:10.725Z,15.07
2023-05-08T06:27:28.114Z,14.68
2023-05-08T06:29:45.660Z,14.80
2023-05-08T06:32:02.910Z,14.43
2023-05-08T06:34:19.835Z,14.68
2023-05-08T06:36:38.123Z,14.45
2023-05-08T06:38:55.053Z,13.40
2023-05-08T06:41:14.548Z,13.50
2023-05-08T06:43:32.947Z,12.20
2023-05-08T06:45:50.542Z,12.93
2023-05-08T06:48:07.982Z,12.80
2023-05-08T06:50:25.525Z,13.10
2023-05-08T06:52:42.854Z,12.82
2023-05-08T06:55:00.679Z,12.18
2023-05-08T06:57:17.974Z,12.60
2023-05-08T06:59:35.309Z,12.35
2023-05-08T07:01:52.892Z,11.98
2023-05-08T07:04:10.829Z,11.02
2023-05-08T07:06:28.462Z,10.52
2023-05-08T07:08:45.757Z,10.80
2023-05-08T07:11:02.821Z,10.95
2023-05-08T07:13:21.128Z,11.75
2023-05-08T07:15:38.411Z,10.73
2023-05-08T07:17:58.196Z,11.10
2023-05-08T07:20:15.460Z,10.25
2023-05-08T07:22:32.765Z,10.55
2023-05-08T07:24:50.082Z,10.05
2023-05-08T07:27:07.138Z,11.57
2023-05-08T07:29:24.173Z,11.07
2023-05-08T07:31:41.462Z,11.68
2023-05-08T07:33:58.846Z,11.82
2023-05-08T07:36:16.203Z,11.25
2023-05-08T07:38:33.516Z,13.55
2023-05-08T07:40:50.753Z,13.48
2023-05-08T07:43:08.569Z,13.18
2023-05-08T07:45:26.348Z,14.13
2023-05-08T07:47:43.341Z,13.02
2023-05-08T07:50:00.396Z,13.68
2023-05-08T07:52:18.030Z,13.20
2023-05-08T07:54:36.411Z,13.75
2023-05-08T07:56:53.502Z,13.77
2023-05-08T07:59:10.757Z,13.80
2023-05-08T08:01:28.028Z,13.63
2023-05-08T08:03:45.018Z,13.55
2023-05-08T08:06:01.941Z,13.38
2023-05-08T08:08:22.450Z,13.23
2023-05-08T08:10:39.768Z,13.30
2023-05-08T08:12:57.069Z,13.50
2023-05-08T08:15:14.680Z,12.45
2023-05-08T08:17:32.200Z,13.18
2023-05-08T08:19:49.468Z,12.15
2023-05-08T08:22:07.194Z,13.05
2023-05-08T08:24:24.072Z,12.75
2023-05-08T08:26:41.366Z,13.50
2023-05-08T08:28:58.681Z,13.07
2023-05-08T08:31:15.960Z,13.55
2023-05-08T08:33:33.213Z,13.25
2023-05-08T08:35:51.464Z,13.88
2023-05-08T08:38:08.782Z,12.60
2023-05-08T08:40:25.727Z,12.27
2023-05-08T08:42:43.429Z,11.73
2023-05-08T08:45:00.806Z,12.38
2023-05-08T08:47:18.126Z,12.75
2023-05-08T08:49:35.470Z,12.60
2023-05-08T08:51:52.798Z,12.80
2023-05-08T08:54:10.092Z,12.43
2023-05-08T08:56:27.428Z,12.73
2023-05-08T08:58:44.767Z,12.68
2023-05-08T09:01:02.637Z,13.15
2023-05-08T09:03:20.098Z,13.20
2023-05-08T09:05:37.475Z,12.40
2023-05-08T09:07:54.742Z,12.68
2023-05-08T09:10:13.046Z,12.48
2023-05-08T09:12:30.388Z,13.40
2023-05-08T09:14:47.705Z,12.90
2023-05-08T09:17:04.977Z,13.13
2023-05-08T09:19:24.955Z,13.40
2023-05-08T09:21:44.109Z,14.10
2023-05-08T09:24:01.422Z,13.95
2023-05-08T09:26:18.699Z,13.90
2023-05-08T09:28:35.934Z,14.20
2023-05-08T09:30:53.313Z,13.63
2023-05-08T09:33:10.696Z,14.48
2023-05-08T09:35:28.637Z,13.73
2023-05-08T09:37:45.929Z,14.68
2023-05-08T09:40:03.852Z,14.27
2023-05-08T09:42:21.060Z,13.20
2023-05-08T09:44:40.098Z,13.70
2023-05-08T09:46:57.155Z,15.50
2023-05-08T09:49:14.874Z,15.23
2023-05-08T09:51:31.851Z,15.10
2023-05-08T09:53:49.203Z,15.65
2023-05-08T09:56:08.178Z,14.85
2023-05-08T09:58:25.479Z,15.15
2023-05-08T10:00:42.831Z,14.23
2023-05-08T10:03:00.441Z,14.20
2023-05-08T10:05:17.529Z,14.85
2023-05-08T10:07:34.926Z,12.80
2023-05-08T10:09:52.478Z,11.98
2023-05-08T10:12:10.140Z,12.30
2023-05-08T10:14:27.503Z,12.27
2023-05-08T10:16:44.772Z,10.93
2023-05-08T10:19:01.739Z,10.80
2023-05-08T10:21:18.992Z,10.00
2023-05-08T10:23:36.199Z,9.88
2023-05-08T10:25:55.045Z,9.85
2023-05-08T10:28:12.352Z,9.65
2023-05-08T10:30:30.258Z,9.55
2023-05-08T10:32:47.583Z,10.15
2023-05-08T10:35:04.688Z,11.73
2023-05-08T10:37:22.018Z,11.55
2023-05-08T10:39:39.289Z,13.00
2023-05-08T10:41:56.548Z,12.38
2023-05-08T10:44:13.861Z,12.20
2023-05-08T10:46:31.184Z,12.73
2023-05-08T10:48:48.358Z,13.85
2023-05-08T10:51:06.197Z,12.35
2023-05-08T10:53:23.162Z,12.55
2023-05-08T10:55:40.561Z,11.65
2023-05-08T10:57:58.236Z,12.73
2023-05-08T11:00:15.747Z,14.45
2023-05-08T11:02:33.207Z,14.80
2023-05-08T11:04:51.532Z,13.73
2023-05-08T11:07:08.908Z,14.95
2023-05-08T11:09:27.356Z,14.32
2023-05-08T11:11:44.571Z,14.90
2023-05-08T11:14:02.713Z,15.07
2023-05-08T11:16:19.864Z,15.75
2023-05-08T11:18:48.473Z,14.80
2023-05-08T11:21:06.342Z,14.10
2023-05-08T11:23:23.639Z,14.63
2023-05-08T11:25:40.994Z,14.30
2023-05-08T11:27:58.435Z,13.90
2023-05-08T11:30:15.374Z,14.30
2023-05-08T11:32:32.696Z,13.43
2023-05-08T11:34:51.034Z,13.93
2023-05-08T11:37:08.298Z,12.63
2023-05-08T11:39:25.235Z,13.23
2023-05-08T11:41:43.665Z,12.90
2023-05-08T11:44:00.647Z,14.27
2023-05-08T11:46:17.978Z,14.75
2023-05-08T11:48:35.413Z,13.77
2023-05-08T11:50:52.947Z,13.13
2023-05-08T11:53:10.455Z,13.57
2023-05-08T11:55:27.764Z,13.70
2023-05-08T11:57:45.241Z,13.80
2023-05-08T12:00:02.997Z,13.75
2023-05-08T12:02:21.067Z,12.25
2023-05-08T12:04:39.309Z,13.82
2023-05-08T12:06:56.340Z,13.25
2023-05-08T12:09:13.613Z,13.55
2023-05-08T12:11:31.582Z,13.18
2023-05-08T12:13:48.526Z,13.48
2023-05-08T12:16:07.419Z,13.43
2023-05-08T12:18:25.091Z,14.32
2023-05-08T12:20:42.411Z,13.27
2023-05-08T12:22:59.719Z,14.00
2023-05-08T12:25:17.044Z,12.57
2023-05-08T12:27:34.764Z,13.38
2023-05-08T12:29:52.153Z,13.13
2023-05-08T12:32:09.772Z,13.75
2023-05-08T12:34:28.113Z,13.35
2023-05-08T12:36:45.079Z,13.25
2023-05-08T12:39:02.222Z,12.27
2023-05-08T12:41:19.128Z,12.07
2023-05-08T12:43:36.350Z,12.00
2023-05-08T12:45:54.652Z,11.32
2023-05-08T12:48:12.243Z,11.13
2023-05-08T12:50:29.285Z,10.70
2023-05-08T12:52:46.494Z,11.20
2023-05-08T12:55:03.755Z,11.05
2023-05-08T12:57:21.018Z,11.48
2023-05-08T12:59:38.314Z,12.23
2023-05-08T13:01:55.679Z,12.27
2023-05-08T13:04:13.060Z,11.48
2023-05-08T13:06:30.479Z,11.43
2023-05-08T13:08:48.761Z,11.75
2023-05-08T13:11:05.789Z,12.18
2023-05-08T13:13:22.939Z,11.32
2023-05-08T13:15:40.387Z,12.20
2023-05-08T13:18:00.249Z,11.88
2023-05-08T13:20:18.022Z,12.10
2023-05-08T13:22:36.278Z,12.75
2023-05-08T13:24:53.604Z,11.75
2023-05-08T13:27:10.745Z,11.90
2023-05-08T13:29:28.061Z,13.82
2023-05-08T13:31:45.417Z,13.15
2023-05-08T13:34:02.796Z,13.52
2023-05-08T13:36:20.044Z,11.98
2023-05-08T13:38:36.933Z,12.95
2023-05-08T13:40:54.365Z,11.65
2023-05-08T13:43:11.645Z,12.57
2023-05-08T13:45:28.973Z,12.07
2023-05-08T13:47:46.250Z,11.52
2023-05-08T13:50:03.505Z,12.05
2023-05-08T13:52:20.819Z,11.70
2023-05-08T13:54:38.188Z,11.65
2023-05-08T13:56:57.458Z,11.68
2023-05-08T13:59:14.748Z,11.50
2023-05-08T14:01:32.128Z,11.65
2023-05-08T14:03:50.214Z,11.55
2023-05-08T14:06:07.256Z,11.48
2023-05-08T14:08:24.472Z,11.10
2023-05-08T14:10:41.785Z,10.50
2023-05-08T14:13:00.731Z,11.38
2023-05-08T14:15:18.051Z,10.43
2023-05-08T14:17:35.174Z,10.70
2023-05-08T14:19:52.405Z,11.50
2023-05-08T14:22:09.377Z,9.38
2023-05-08T14:24:27.743Z,10.32
2023-05-08T14:26:45.047Z,9.65
2023-05-08T14:29:03.158Z,10.18
2023-05-08T14:31:20.488Z,10.18
2023-05-08T14:33:37.799Z,10.30
2023-05-08T14:35:54.698Z,10.45
2023-05-08T14:38:11.801Z,10.05
2023-05-08T14:40:29.108Z,10.75
2023-05-08T14:42:47.364Z,11.80
2023-05-08T14:45:04.581Z,11.23
2023-05-08T14:47:21.991Z,10.77
2023-05-08T14:49:40.282Z,11.05
2023-05-08T14:51:57.460Z,12.07
2023-05-08T14:54:16.946Z,12.55
2023-05-08T14:56:46.405Z,12.82
2023-05-08T14:59:04.949Z,12.82
2023-05-08T15:01:22.201Z,12.73
2023-05-08T15:03:39.888Z,12.40
2023-05-08T15:05:57.671Z,13.10
2023-05-08T15:08:14.940Z,13.63
2023-05-08T15:10:32.212Z,14.65
2023-05-08T15:12:49.219Z,14.25
2023-05-08T15:15:06.649Z,14.80
2023-05-08T15:17:24.857Z,13.82
2023-05-08T15:19:42.455Z,14.60
2023-05-08T15:21:59.821Z,14.30
2023-05-08T15:24:17.167Z,14.32
2023-05-08T15:26:34.335Z,14.68
2023-05-08T15:28:52.089Z,14.43
2023-05-08T15:31:09.332Z,14.88
2023-05-08T15:33:26.622Z,14.20
2023-05-08T15:35:45.246Z,15.45
2023-05-08T15:38:02.560Z,15.73
2023-05-08T15:40:19.533Z,14.40
2023-05-08T15:42:36.732Z,15.18
2023-05-08T15:44:55.121Z,15.75
2023-05-08T15:47:12.829Z,14.00
2023-05-08T15:49:29.863Z,14.18
2023-05-08T15:51:46.892Z,15.10
2023-05-08T15:54:07.440Z,16.08
2023-05-08T15:56:24.315Z,16.48
2023-05-08T15:58:42.764Z,17.13
2023-05-08T16:01:00.172Z,16.65
2023-05-08T16:03:17.313Z,17.55
2023-05-08T16:05:35.619Z,17.50
2023-05-08T16:07:53.851Z,20.00
2023-05-08T16:10:14.069Z,19.35
2023-05-08T16:12:31.011Z,19.38
2023-05-08T16:14:49.214Z,20.00
2023-05-08T16:17:08.453Z,19.05
2023-05-08T16:19:25.803Z,17.75
2023-05-08T16:21:43.035Z,18.15
2023-05-08T16:24:01.232Z,18.38
2023-05-08T16:26:19.535Z,17.95
2023-05-08T16:28:36.786Z,17.55
2023-05-08T16:30:54.136Z,17.52
2023-05-08T16:33:12.432Z,17.70
2023-05-08T16:35:29.839Z,17.45
2023-05-08T16:37:47.228Z,17.50
2023-05-08T16:40:05.537Z,17.92
2023-05-08T16:42:23.814Z,17.58
2023-05-08T16:44:41.107Z,18.25
2023-05-08T16:46:58.784Z,18.15
2023-05-08T16:49:17.041Z,17.33
2023-05-08T16:51:34.031Z,18.42
2023-05-08T16:53:51.079Z,17.25
2023-05-08T16:56:08.134Z,17.80
2023-05-08T16:58:25.437Z,17.67
2023-05-08T17:00:42.698Z,18.20
2023-05-08T17:03:00.007Z,17.20
2023-05-08T17:05:17.124Z,18.30
2023-05-08T17:07:34.422Z,19.00
2023-05-08T17:09:52.103Z,18.85
2023-05-08T17:12:09.461Z,19.30
2023-05-08T17:14:26.790Z,20.52
2023-05-08T17:16:43.749Z,19.42
2023-05-08T17:19:00.988Z,19.00
2023-05-08T17:21:18.271Z,19.00
2023-05-08T17:23:35.639Z,18.98
2023-05-08T17:25:52.680Z,20.77
2023-05-08T17:28:11.088Z,21.90
2023-05-08T17:30:29.377Z,21.55
2023-05-08T17:32:47.286Z,21.33
2023-05-08T17:35:04.624Z,21.10
2023-05-08T17:37:21.846Z,20.02
2023-05-08T17:39:40.053Z,21.17
2023-05-08T17:41:57.537Z,20.77
2023-05-08T17:44:14.546Z,22.23
2023-05-08T17:46:31.859Z,19.80
2023-05-08T17:48:49.103Z,21.48
2023-05-08T17:51:06.507Z,20.75
2023-05-08T17:53:23.533Z,22.17
2023-05-08T17:55:41.142Z,20.45
2023-05-08T17:57:58.037Z,19.75
2023-05-08T18:00:15.460Z,19.27
2023-05-08T18:02:33.952Z,17.80
2023-05-08T18:04:51.307Z,18.15
2023-05-08T18:07:08.546Z,16.92
2023-05-08T18:09:25.830Z,19.33
2023-05-08T18:11:44.110Z,18.80
2023-05-08T18:14:01.116Z,17.08
2023-05-08T18:16:18.213Z,16.83
2023-05-08T18:18:35.494Z,16.02
2023-05-08T18:20:53.871Z,15.27
2023-05-08T18:23:11.539Z,16.58
2023-05-08T18:25:29.744Z,16.50
2023-05-08T18:27:47.179Z,15.95
2023-05-08T18:30:04.403Z,14.57
2023-05-08T18:32:21.328Z,18.08
2023-05-08T18:34:38.286Z,18.00
2023-05-08T18:36:56.845Z,16.88
2023-05-08T18:39:15.323Z,15.95
2023-05-08T18:41:32.642Z,15.93
2023-05-08T18:43:49.884Z,15.32
2023-05-08T18:46:07.198Z,15.38
2023-05-08T18:48:24.449Z,15.80
2023-05-08T18:50:41.542Z,14.85
2023-05-08T18:52:58.464Z,15.13
2023-05-08T18:55:15.414Z,15.98
2023-05-08T18:57:32.600Z,16.30
2023-05-08T18:59:50.001Z,16.52
2023-05-08T19:02:06.949Z,15.40
2023-05-08T19:04:25.103Z,15.98
2023-05-08T19:06:42.342Z,15.25
2023-05-08T19:08:59.597Z,16.58
2023-05-08T19:11:16.899Z,17.15
2023-05-08T19:13:34.611Z,15.15
2023-05-08T19:15:52.902Z,15.65
2023-05-08T19:18:09.981Z,16.55
2023-05-08T19:20:27.315Z,16.75
2023-05-08T19:22:44.632Z,17.10
2023-05-08T19:25:02.360Z,17.15
2023-05-08T19:27:20.267Z,17.80
2023-05-08T19:29:37.556Z,18.17
2023-05-08T19:31:55.901Z,17.67
2023-05-08T19:34:13.216Z,17.85
2023-05-08T19:36:30.534Z,17.88
2023-05-08T19:38:47.761Z,17.38
2023-05-08T19:41:04.731Z,16.40
2023-05-08T19:43:21.759Z,15.88
2023-05-08T19:45:38.655Z,16.75
2023-05-08T19:47:55.589Z,16.83
2023-05-08T19:50:13.072Z,17.00
2023-05-08T19:52:30.523Z,16.55
2023-05-08T19:54:47.850Z,16.88
2023-05-08T19:57:04.782Z,17.30
2023-05-08T19:59:22.118Z,18.27
2023-05-08T20:01:39.450Z,18.48
2023-05-08T20:03:59.795Z,17.00
2023-05-08T20:06:17.545Z,20.20
2023-05-08T20:08:35.378Z,19.90
2023-05-08T20:10:52.702Z,19.05
2023-05-08T20:13:10.078Z,18.88
2023-05-08T20:15:27.456Z,17.70
2023-05-08T20:17:44.789Z,19.08
2023-05-08T20:20:02.250Z,19.55
2023-05-08T20:22:20.002Z,18.88
2023-05-08T20:24:37.313Z,18.20
2023-05-08T20:26:54.964Z,19.02
2023-05-08T20:29:12.278Z,19.13
2023-05-08T20:31:29.177Z,20.17
2023-05-08T20:33:46.467Z,18.85
2023-05-08T20:36:04.819Z,18.67
2023-05-08T20:38:21.777Z,18.52
2023-05-08T20:40:39.082Z,18.48
2023-05-08T20:42:57.364Z,19.52
2023-05-08T20:45:15.705Z,17.70
2023-05-08T20:47:33.405Z,18.17
2023-05-08T20:49:50.708Z,17.55
2023-05-08T20:52:08.346Z,18.30
2023-05-08T20:54:25.745Z,18.35
2023-05-08T20:56:43.029Z,18.67
2023-05-08T20:59:00.295Z,18.05
2023-05-08T21:01:19.786Z,19.05
2023-05-08T21:03:38.043Z,17.60
2023-05-08T21:05:55.697Z,17.92
2023-05-08T21:08:12.994Z,19.02
2023-05-08T21:10:30.295Z,19.05
2023-05-08T21:12:48.566Z,19.15
2023-05-08T21:15:05.845Z,19.17
2023-05-08T21:17:24.071Z,18.92
2023-05-08T21:19:41.350Z,17.95
2023-05-08T21:21:59.690Z,19.13
2023-05-08T21:24:16.985Z,18.42
2023-05-08T21:26:34.340Z,17.38
2023-05-08T21:28:51.575Z,18.13
2023-05-08T21:31:08.962Z,19.17
2023-05-08T21:33:25.944Z,19.05
2023-05-08T21:35:43.176Z,18.25
2023-05-08T21:38:00.153Z,18.30
2023-05-08T21:40:17.404Z,18.73
2023-05-08T21:42:34.739Z,18.70
2023-05-08T21:44:51.694Z,18.17
2023-05-08T21:47:09.730Z,19.35
2023-05-08T21:49:27.008Z,18.83
2023-05-08T21:51:43.900Z,18.20
2023-05-08T21:54:01.477Z,18.90
2023-05-08T21:56:18.699Z,18.23
2023-05-08T21:58:36.021Z,17.65
2023-05-08T22:00:53.260Z,16.55
2023-05-08T22:03:10.624Z,17.45
2023-05-08T22:05:28.012Z,18.35
2023-05-08T22:07:45.330Z,19.08
2023-05-08T22:10:02.601Z,16.95
2023-05-08T22:12:20.156Z,18.52
2023-05-08T22:14:38.412Z,17.60
2023-05-08T22:16:55.733Z,19.33
2023-05-08T22:19:13.074Z,18.50
2023-05-08T22:21:30.362Z,19.35
2023-05-08T22:23:47.991Z,19.17
2023-05-08T22:26:05.249Z,18.40
2023-05-08T22:28:22.284Z,18.50
2023-05-08T22:30:40.596Z,19.42
2023-05-08T22:32:58.030Z,19.02
2023-05-08T22:35:15.688Z,20.10
2023-05-08T22:37:32.803Z,19.52
2023-05-08T22:39:49.826Z,20.17
2023-05-08T22:42:06.772Z,19.73
2023-05-08T22:44:24.099Z,19.05
2023-05-08T22:46:41.442Z,17.92
2023-05-08T22:48:58.752Z,18.15
2023-05-08T22:51:17.042Z,16.67
2023-05-08T22:53:33.976Z,17.55
2023-05-08T22:55:51.242Z,16.58
2023-05-08T22:58:08.563Z,16.58
2023-05-08T23:00:25.879Z,16.80
2023-05-08T23:02:44.349Z,16.08
2023-05-08T23:05:02.161Z,16.20
2023-05-08T23:07:19.915Z,15.90
2023-05-08T23:09:37.639Z,17.13
2023-05-08T23:11:55.554Z,17.10
2023-05-08T23:14:12.873Z,15.82
2023-05-08T23:16:30.194Z,16.73
2023-05-08T23:18:47.853Z,16.48
2023-05-08T23:21:05.173Z,15.77
2023-05-08T23:23:22.512Z,16.17
2023-05-08T23:25:40.196Z,17.60
2023-05-08T23:27:57.488Z,16.58
2023-05-08T23:30:15.065Z,16.63
2023-05-08T23:32:32.486Z,17.23
2023-05-08T23:34:49.392Z,17.45
2023-05-08T23:37:06.618Z,17.77
2023-05-08T23:39:23.974Z,18.15
2023-05-08T23:41:41.297Z,17.33
2023-05-08T23:43:58.324Z,16.83
2023-05-08T23:46:15.694Z,17.95
2023-05-08T23:48:35.196Z,17.17
2023-05-08T23:50:52.540Z,15.77
2023-05-08T23:53:10.779Z,17.08
2023-05-08T23:55:27.971Z,18.50
2023-05-08T23:57:45.669Z,17.58
